sensor_id;sensor_type;location;lat;lon;timestamp;P1;durP1;ratioP1;P2;durP2;ratioP2
60076;SDS011;45950;45.208;20.374;2023-11-19T00:00:26;8.93;;;5.45;;
60076;SDS011;45950;45.208;20.374;2023-11-19T00:02:52;9.80;;;5.50;;
60076;SDS011;45950;45.208;20.374;2023-11-19T00:05:19;9.05;;;5.53;;
60076;SDS011;45950;45.208;20.374;2023-11-19T00:07:45;9.40;;;5.07;;
60076;SDS011;45950;45.208;20.374;2023-11-19T00:10:14;9.30;;;6.20;;
60076;SDS011;45950;45.208;20.374;2023-11-19T00:12:46;9.18;;;5.40;;
60076;SDS011;45950;45.208;20.374;2023-11-19T00:15:12;9.55;;;5.93;;
60076;SDS011;45950;45.208;20.374;2023-11-19T00:17:39;9.20;;;5.85;;
60076;SDS011;45950;45.208;20.374;2023-11-19T00:20:10;8.52;;;5.25;;
60076;SDS011;45950;45.208;20.374;2023-11-19T00:22:36;8.35;;;6.13;;
60076;SDS011;45950;45.208;20.374;2023-11-19T00:25:03;9.68;;;6.30;;
60076;SDS011;45950;45.208;20.374;2023-11-19T00:27:30;7.50;;;5.75;;
60076;SDS011;45950;45.208;20.374;2023-11-19T00:29:58;11.07;;;6.15;;
60076;SDS011;45950;45.208;20.374;2023-11-19T00:32:29;9.77;;;5.80;;
60076;SDS011;45950;45.208;20.374;2023-11-19T00:34:55;9.45;;;5.60;;
60076;SDS011;45950;45.208;20.374;2023-11-19T00:37:22;10.15;;;6.28;;
60076;SDS011;45950;45.208;20.374;2023-11-19T00:39:49;9.57;;;5.38;;
60076;SDS011;45950;45.208;20.374;2023-11-19T00:42:17;10.85;;;6.03;;
60076;SDS011;45950;45.208;20.374;2023-11-19T00:44:43;10.02;;;5.50;;
60076;SDS011;45950;45.208;20.374;2023-11-19T00:47:12;7.40;;;4.50;;
60076;SDS011;45950;45.208;20.374;2023-11-19T00:49:38;8.63;;;5.45;;
60076;SDS011;45950;45.208;20.374;2023-11-19T00:52:05;9.75;;;5.57;;
60076;SDS011;45950;45.208;20.374;2023-11-19T00:54:32;7.40;;;4.80;;
60076;SDS011;45950;45.208;20.374;2023-11-19T00:56:58;9.07;;;6.07;;
60076;SDS011;45950;45.208;20.374;2023-11-19T00:59:26;10.35;;;6.55;;
60076;SDS011;45950;45.208;20.374;2023-11-19T01:01:53;11.40;;;6.13;;
60076;SDS011;45950;45.208;20.374;2023-11-19T01:04:23;10.35;;;6.07;;
60076;SDS011;45950;45.208;20.374;2023-11-19T01:06:50;9.23;;;5.15;;
60076;SDS011;45950;45.208;20.374;2023-11-19T01:09:16;10.07;;;5.07;;
60076;SDS011;45950;45.208;20.374;2023-11-19T01:11:43;8.18;;;5.68;;
60076;SDS011;45950;45.208;20.374;2023-11-19T01:14:09;10.15;;;5.38;;
60076;SDS011;45950;45.208;20.374;2023-11-19T01:16:36;8.88;;;5.13;;
60076;SDS011;45950;45.208;20.374;2023-11-19T01:19:03;9.80;;;5.63;;
60076;SDS011;45950;45.208;20.374;2023-11-19T01:21:31;8.82;;;5.65;;
60076;SDS011;45950;45.208;20.374;2023-11-19T01:23:58;10.25;;;5.78;;
60076;SDS011;45950;45.208;20.374;2023-11-19T01:26:31;9.63;;;5.68;;
60076;SDS011;45950;45.208;20.374;2023-11-19T01:28:57;10.68;;;5.95;;
60076;SDS011;45950;45.208;20.374;2023-11-19T01:31:25;11.60;;;6.95;;
60076;SDS011;45950;45.208;20.374;2023-11-19T01:33:51;9.13;;;6.03;;
60076;SDS011;45950;45.208;20.374;2023-11-19T01:36:24;8.00;;;5.38;;
60076;SDS011;45950;45.208;20.374;2023-11-19T01:38:52;10.38;;;6.28;;
60076;SDS011;45950;45.208;20.374;2023-11-19T01:41:18;10.13;;;5.80;;
60076;SDS011;45950;45.208;20.374;2023-11-19T01:43:49;9.90;;;5.60;;
60076;SDS011;45950;45.208;20.374;2023-11-19T01:46:16;11.15;;;6.28;;
60076;SDS011;45950;45.208;20.374;2023-11-19T01:48:44;9.20;;;5.68;;
60076;SDS011;45950;45.208;20.374;2023-11-19T01:51:11;10.45;;;5.95;;
60076;SDS011;45950;45.208;20.374;2023-11-19T01:53:41;9.40;;;5.63;;
60076;SDS011;45950;45.208;20.374;2023-11-19T01:56:11;8.75;;;5.30;;
60076;SDS011;45950;45.208;20.374;2023-11-19T01:58:39;8.65;;;5.07;;
60076;SDS011;45950;45.208;20.374;2023-11-19T02:01:07;11.02;;;6.00;;
60076;SDS011;45950;45.208;20.374;2023-11-19T02:06:27;12.65;;;6.18;;
60076;SDS011;45950;45.208;20.374;2023-11-19T02:08:54;12.10;;;6.45;;
60076;SDS011;45950;45.208;20.374;2023-11-19T02:11:22;14.98;;;6.50;;
60076;SDS011;45950;45.208;20.374;2023-11-19T02:13:54;16.83;;;8.38;;
60076;SDS011;45950;45.208;20.374;2023-11-19T02:16:21;25.88;;;12.65;;
60076;SDS011;45950;45.208;20.374;2023-11-19T02:18:47;34.17;;;14.93;;
60076;SDS011;45950;45.208;20.374;2023-11-19T02:21:14;27.13;;;13.00;;
60076;SDS011;45950;45.208;20.374;2023-11-19T02:23:42;18.52;;;9.18;;
60076;SDS011;45950;45.208;20.374;2023-11-19T02:26:12;15.43;;;8.43;;
60076;SDS011;45950;45.208;20.374;2023-11-19T02:28:41;14.05;;;7.95;;
60076;SDS011;45950;45.208;20.374;2023-11-19T02:31:08;12.00;;;7.15;;
60076;SDS011;45950;45.208;20.374;2023-11-19T02:33:35;13.85;;;8.80;;
60076;SDS011;45950;45.208;20.374;2023-11-19T02:36:02;14.75;;;8.30;;
60076;SDS011;45950;45.208;20.374;2023-11-19T02:38:29;19.10;;;10.63;;
60076;SDS011;45950;45.208;20.374;2023-11-19T02:40:56;13.52;;;8.27;;
60076;SDS011;45950;45.208;20.374;2023-11-19T02:43:22;10.73;;;6.43;;
60076;SDS011;45950;45.208;20.374;2023-11-19T02:45:50;13.65;;;7.55;;
60076;SDS011;45950;45.208;20.374;2023-11-19T02:48:20;10.30;;;6.20;;
60076;SDS011;45950;45.208;20.374;2023-11-19T02:53:34;11.20;;;6.07;;
60076;SDS011;45950;45.208;20.374;2023-11-19T02:56:02;9.80;;;6.38;;
60076;SDS011;45950;45.208;20.374;2023-11-19T02:58:36;11.82;;;7.00;;
60076;SDS011;45950;45.208;20.374;2023-11-19T03:01:05;9.63;;;6.15;;
60076;SDS011;45950;45.208;20.374;2023-11-19T03:03:38;11.70;;;5.93;;
60076;SDS011;45950;45.208;20.374;2023-11-19T03:06:05;11.70;;;6.88;;
60076;SDS011;45950;45.208;20.374;2023-11-19T03:08:32;11.63;;;6.35;;
60076;SDS011;45950;45.208;20.374;2023-11-19T03:10:59;7.85;;;5.13;;
60076;SDS011;45950;45.208;20.374;2023-11-19T03:13:25;9.95;;;6.75;;
60076;SDS011;45950;45.208;20.374;2023-11-19T03:16:01;10.60;;;6.20;;
60076;SDS011;45950;45.208;20.374;2023-11-19T03:18:29;11.82;;;6.25;;
60076;SDS011;45950;45.208;20.374;2023-11-19T03:20:56;9.38;;;6.60;;
60076;SDS011;45950;45.208;20.374;2023-11-19T03:23:23;12.38;;;7.15;;
60076;SDS011;45950;45.208;20.374;2023-11-19T03:25:52;10.77;;;6.18;;
60076;SDS011;45950;45.208;20.374;2023-11-19T03:28:22;10.27;;;6.43;;
60076;SDS011;45950;45.208;20.374;2023-11-19T03:30:49;10.93;;;7.10;;
60076;SDS011;45950;45.208;20.374;2023-11-19T03:33:15;12.98;;;7.20;;
60076;SDS011;45950;45.208;20.374;2023-11-19T03:35:43;11.80;;;7.00;;
60076;SDS011;45950;45.208;20.374;2023-11-19T03:38:11;12.35;;;7.00;;
60076;SDS011;45950;45.208;20.374;2023-11-19T03:40:39;9.77;;;6.20;;
60076;SDS011;45950;45.208;20.374;2023-11-19T03:43:06;10.35;;;6.43;;
60076;SDS011;45950;45.208;20.374;2023-11-19T03:45:33;10.85;;;6.72;;
60076;SDS011;45950;45.208;20.374;2023-11-19T03:48:01;10.35;;;6.22;;
60076;SDS011;45950;45.208;20.374;2023-11-19T03:50:28;10.82;;;6.10;;
60076;SDS011;45950;45.208;20.374;2023-11-19T03:52:56;11.07;;;6.32;;
60076;SDS011;45950;45.208;20.374;2023-11-19T03:55:22;10.70;;;6.35;;
60076;SDS011;45950;45.208;20.374;2023-11-19T03:57:49;9.70;;;6.30;;
60076;SDS011;45950;45.208;20.374;2023-11-19T04:00:15;14.43;;;7.43;;
60076;SDS011;45950;45.208;20.374;2023-11-19T04:02:42;11.43;;;6.90;;
60076;SDS011;45950;45.208;20.374;2023-11-19T04:05:22;9.88;;;6.38;;
60076;SDS011;45950;45.208;20.374;2023-11-19T04:07:48;12.68;;;6.65;;
60076;SDS011;45950;45.208;20.374;2023-11-19T04:10:16;10.70;;;6.82;;
60076;SDS011;45950;45.208;20.374;2023-11-19T04:12:47;10.70;;;6.40;;
60076;SDS011;45950;45.208;20.374;2023-11-19T04:15:14;10.93;;;6.72;;
60076;SDS011;45950;45.208;20.374;2023-11-19T04:17:41;10.32;;;6.50;;
60076;SDS011;45950;45.208;20.374;2023-11-19T04:20:22;13.82;;;6.72;;
60076;SDS011;45950;45.208;20.374;2023-11-19T04:22:49;12.20;;;6.10;;
60076;SDS011;45950;45.208;20.374;2023-11-19T04:25:17;16.10;;;9.10;;
60076;SDS011;45950;45.208;20.374;2023-11-19T04:27:44;14.75;;;9.95;;
60076;SDS011;45950;45.208;20.374;2023-11-19T04:30:13;25.75;;;12.93;;
60076;SDS011;45950;45.208;20.374;2023-11-19T04:32:39;16.17;;;9.30;;
60076;SDS011;45950;45.208;20.374;2023-11-19T04:35:06;11.80;;;8.18;;
60076;SDS011;45950;45.208;20.374;2023-11-19T04:37:34;9.85;;;6.03;;
60076;SDS011;45950;45.208;20.374;2023-11-19T04:40:01;22.10;;;12.70;;
60076;SDS011;45950;45.208;20.374;2023-11-19T04:42:28;32.55;;;16.50;;
60076;SDS011;45950;45.208;20.374;2023-11-19T04:44:55;17.63;;;8.82;;
60076;SDS011;45950;45.208;20.374;2023-11-19T04:47:29;17.42;;;10.32;;
60076;SDS011;45950;45.208;20.374;2023-11-19T04:49:56;19.05;;;10.80;;
60076;SDS011;45950;45.208;20.374;2023-11-19T04:52:23;19.42;;;13.48;;
60076;SDS011;45950;45.208;20.374;2023-11-19T04:54:49;25.08;;;15.27;;
60076;SDS011;45950;45.208;20.374;2023-11-19T04:57:16;13.45;;;8.43;;
60076;SDS011;45950;45.208;20.374;2023-11-19T04:59:44;15.02;;;9.77;;
60076;SDS011;45950;45.208;20.374;2023-11-19T05:02:11;13.93;;;8.75;;
60076;SDS011;45950;45.208;20.374;2023-11-19T05:04:41;9.85;;;6.30;;
60076;SDS011;45950;45.208;20.374;2023-11-19T05:07:08;11.10;;;6.38;;
60076;SDS011;45950;45.208;20.374;2023-11-19T05:09:35;9.80;;;6.43;;
60076;SDS011;45950;45.208;20.374;2023-11-19T05:12:01;10.10;;;6.35;;
60076;SDS011;45950;45.208;20.374;2023-11-19T05:14:28;11.95;;;7.28;;
60076;SDS011;45950;45.208;20.374;2023-11-19T05:16:56;12.65;;;6.50;;
60076;SDS011;45950;45.208;20.374;2023-11-19T05:19:22;9.52;;;6.82;;
60076;SDS011;45950;45.208;20.374;2023-11-19T05:21:49;9.75;;;5.78;;
60076;SDS011;45950;45.208;20.374;2023-11-19T05:24:17;10.63;;;6.53;;
60076;SDS011;45950;45.208;20.374;2023-11-19T05:26:44;10.90;;;6.85;;
60076;SDS011;45950;45.208;20.374;2023-11-19T05:29:10;10.70;;;6.10;;
60076;SDS011;45950;45.208;20.374;2023-11-19T05:31:42;11.65;;;7.00;;
60076;SDS011;45950;45.208;20.374;2023-11-19T05:34:10;11.55;;;6.85;;
60076;SDS011;45950;45.208;20.374;2023-11-19T05:36:36;14.05;;;8.32;;
60076;SDS011;45950;45.208;20.374;2023-11-19T05:39:05;11.65;;;6.88;;
60076;SDS011;45950;45.208;20.374;2023-11-19T05:41:32;11.10;;;6.32;;
60076;SDS011;45950;45.208;20.374;2023-11-19T05:43:58;10.45;;;6.30;;
60076;SDS011;45950;45.208;20.374;2023-11-19T05:46:25;13.70;;;7.28;;
60076;SDS011;45950;45.208;20.374;2023-11-19T05:48:52;11.40;;;6.45;;
60076;SDS011;45950;45.208;20.374;2023-11-19T05:51:20;11.93;;;7.32;;
60076;SDS011;45950;45.208;20.374;2023-11-19T05:53:49;12.52;;;7.45;;
60076;SDS011;45950;45.208;20.374;2023-11-19T05:56:15;10.23;;;6.63;;
60076;SDS011;45950;45.208;20.374;2023-11-19T05:58:46;10.25;;;6.32;;
60076;SDS011;45950;45.208;20.374;2023-11-19T06:01:14;9.73;;;6.28;;
60076;SDS011;45950;45.208;20.374;2023-11-19T06:03:41;9.23;;;6.20;;
60076;SDS011;45950;45.208;20.374;2023-11-19T06:06:08;10.18;;;7.75;;
60076;SDS011;45950;45.208;20.374;2023-11-19T06:08:36;10.18;;;6.35;;
60076;SDS011;45950;45.208;20.374;2023-11-19T06:11:03;10.93;;;7.38;;
60076;SDS011;45950;45.208;20.374;2023-11-19T06:13:30;11.95;;;7.20;;
60076;SDS011;45950;45.208;20.374;2023-11-19T06:15:57;22.88;;;11.27;;
60076;SDS011;45950;45.208;20.374;2023-11-19T06:18:23;26.50;;;15.10;;
60076;SDS011;45950;45.208;20.374;2023-11-19T06:20:50;15.10;;;9.10;;
60076;SDS011;45950;45.208;20.374;2023-11-19T06:23:17;15.07;;;9.68;;
60076;SDS011;45950;45.208;20.374;2023-11-19T06:25:45;19.73;;;12.35;;
60076;SDS011;45950;45.208;20.374;2023-11-19T06:28:11;13.43;;;7.57;;
60076;SDS011;45950;45.208;20.374;2023-11-19T06:30:38;10.27;;;6.70;;
60076;SDS011;45950;45.208;20.374;2023-11-19T06:33:05;13.15;;;9.38;;
60076;SDS011;45950;45.208;20.374;2023-11-19T06:35:31;10.80;;;6.70;;
60076;SDS011;45950;45.208;20.374;2023-11-19T06:38:01;10.75;;;6.20;;
60076;SDS011;45950;45.208;20.374;2023-11-19T06:40:30;11.95;;;6.80;;
60076;SDS011;45950;45.208;20.374;2023-11-19T06:42:58;9.45;;;5.93;;
60076;SDS011;45950;45.208;20.374;2023-11-19T06:45:25;9.32;;;5.90;;
60076;SDS011;45950;45.208;20.374;2023-11-19T06:47:51;10.70;;;6.40;;
60076;SDS011;45950;45.208;20.374;2023-11-19T06:50:18;10.20;;;5.43;;
60076;SDS011;45950;45.208;20.374;2023-11-19T06:52:45;9.93;;;6.22;;
60076;SDS011;45950;45.208;20.374;2023-11-19T06:55:12;11.20;;;5.72;;
60076;SDS011;45950;45.208;20.374;2023-11-19T06:57:44;12.20;;;6.50;;
60076;SDS011;45950;45.208;20.374;2023-11-19T07:00:12;12.20;;;6.78;;
60076;SDS011;45950;45.208;20.374;2023-11-19T07:02:39;11.68;;;5.90;;
60076;SDS011;45950;45.208;20.374;2023-11-19T07:05:06;9.93;;;5.75;;
60076;SDS011;45950;45.208;20.374;2023-11-19T07:07:33;9.00;;;5.95;;
60076;SDS011;45950;45.208;20.374;2023-11-19T07:10:00;11.93;;;5.70;;
60076;SDS011;45950;45.208;20.374;2023-11-19T07:12:27;10.80;;;6.10;;
60076;SDS011;45950;45.208;20.374;2023-11-19T07:14:54;11.98;;;5.75;;
60076;SDS011;45950;45.208;20.374;2023-11-19T07:17:23;11.55;;;6.57;;
60076;SDS011;45950;45.208;20.374;2023-11-19T07:19:50;9.82;;;6.55;;
60076;SDS011;45950;45.208;20.374;2023-11-19T07:22:16;8.88;;;5.72;;
60076;SDS011;45950;45.208;20.374;2023-11-19T07:24:43;10.55;;;6.05;;
60076;SDS011;45950;45.208;20.374;2023-11-19T07:27:09;12.90;;;6.57;;
60076;SDS011;45950;45.208;20.374;2023-11-19T07:29:36;10.95;;;6.78;;
60076;SDS011;45950;45.208;20.374;2023-11-19T07:32:03;10.02;;;6.47;;
60076;SDS011;45950;45.208;20.374;2023-11-19T07:34:31;9.77;;;6.03;;
60076;SDS011;45950;45.208;20.374;2023-11-19T07:36:58;9.45;;;5.97;;
60076;SDS011;45950;45.208;20.374;2023-11-19T07:39:27;10.32;;;6.30;;
60076;SDS011;45950;45.208;20.374;2023-11-19T07:41:54;35.15;;;15.57;;
60076;SDS011;45950;45.208;20.374;2023-11-19T07:44:20;19.40;;;10.43;;
60076;SDS011;45950;45.208;20.374;2023-11-19T07:46:47;18.58;;;8.35;;
60076;SDS011;45950;45.208;20.374;2023-11-19T07:49:14;20.58;;;10.68;;
60076;SDS011;45950;45.208;20.374;2023-11-19T07:51:42;12.00;;;6.97;;
60076;SDS011;45950;45.208;20.374;2023-11-19T07:54:08;19.58;;;10.25;;
60076;SDS011;45950;45.208;20.374;2023-11-19T07:56:35;10.57;;;6.53;;
60076;SDS011;45950;45.208;20.374;2023-11-19T07:59:02;15.27;;;8.00;;
60076;SDS011;45950;45.208;20.374;2023-11-19T08:01:28;42.78;;;17.83;;
60076;SDS011;45950;45.208;20.374;2023-11-19T08:03:55;36.70;;;17.50;;
60076;SDS011;45950;45.208;20.374;2023-11-19T08:06:22;26.40;;;12.60;;
60076;SDS011;45950;45.208;20.374;2023-11-19T08:08:50;22.95;;;12.18;;
60076;SDS011;45950;45.208;20.374;2023-11-19T08:11:17;26.38;;;13.93;;
60076;SDS011;45950;45.208;20.374;2023-11-19T08:13:44;22.92;;;11.95;;
60076;SDS011;45950;45.208;20.374;2023-11-19T08:16:12;38.15;;;16.85;;
60076;SDS011;45950;45.208;20.374;2023-11-19T08:18:41;28.98;;;13.75;;
60076;SDS011;45950;45.208;20.374;2023-11-19T08:21:07;33.17;;;15.93;;
60076;SDS011;45950;45.208;20.374;2023-11-19T08:23:35;42.28;;;17.25;;
60076;SDS011;45950;45.208;20.374;2023-11-19T08:26:04;16.60;;;9.02;;
60076;SDS011;45950;45.208;20.374;2023-11-19T08:28:30;14.25;;;9.38;;
60076;SDS011;45950;45.208;20.374;2023-11-19T08:30:59;14.52;;;9.27;;
60076;SDS011;45950;45.208;20.374;2023-11-19T08:33:26;11.95;;;8.25;;
60076;SDS011;45950;45.208;20.374;2023-11-19T08:35:52;15.30;;;8.43;;
60076;SDS011;45950;45.208;20.374;2023-11-19T08:38:19;18.92;;;9.93;;
60076;SDS011;45950;45.208;20.374;2023-11-19T08:40:46;12.05;;;7.32;;
60076;SDS011;45950;45.208;20.374;2023-11-19T08:43:13;15.45;;;8.93;;
60076;SDS011;45950;45.208;20.374;2023-11-19T08:45:41;19.73;;;10.68;;
60076;SDS011;45950;45.208;20.374;2023-11-19T08:48:07;17.27;;;9.27;;
60076;SDS011;45950;45.208;20.374;2023-11-19T08:50:37;32.30;;;15.88;;
60076;SDS011;45950;45.208;20.374;2023-11-19T08:53:04;23.50;;;12.60;;
60076;SDS011;45950;45.208;20.374;2023-11-19T08:55:33;16.90;;;9.25;;
60076;SDS011;45950;45.208;20.374;2023-11-19T08:57:59;37.30;;;18.23;;
60076;SDS011;45950;45.208;20.374;2023-11-19T09:00:27;13.48;;;7.78;;
60076;SDS011;45950;45.208;20.374;2023-11-19T09:02:56;11.77;;;7.93;;
60076;SDS011;45950;45.208;20.374;2023-11-19T09:05:23;18.75;;;11.50;;
60076;SDS011;45950;45.208;20.374;2023-11-19T09:07:49;14.38;;;8.68;;
60076;SDS011;45950;45.208;20.374;2023-11-19T09:10:16;15.75;;;9.30;;
60076;SDS011;45950;45.208;20.374;2023-11-19T09:12:43;11.93;;;6.55;;
60076;SDS011;45950;45.208;20.374;2023-11-19T09:15:09;11.25;;;6.75;;
60076;SDS011;45950;45.208;20.374;2023-11-19T09:17:38;12.10;;;7.88;;
60076;SDS011;45950;45.208;20.374;2023-11-19T09:20:06;9.25;;;6.65;;
60076;SDS011;45950;45.208;20.374;2023-11-19T09:22:33;8.23;;;5.82;;
60076;SDS011;45950;45.208;20.374;2023-11-19T09:25:00;12.95;;;8.23;;
60076;SDS011;45950;45.208;20.374;2023-11-19T09:27:26;17.42;;;9.32;;
60076;SDS011;45950;45.208;20.374;2023-11-19T09:29:54;45.03;;;20.15;;
60076;SDS011;45950;45.208;20.374;2023-11-19T09:32:22;15.70;;;8.65;;
60076;SDS011;45950;45.208;20.374;2023-11-19T09:34:50;10.93;;;6.60;;
60076;SDS011;45950;45.208;20.374;2023-11-19T09:37:17;20.05;;;10.45;;
60076;SDS011;45950;45.208;20.374;2023-11-19T09:39:44;15.93;;;9.30;;
60076;SDS011;45950;45.208;20.374;2023-11-19T09:42:11;17.52;;;9.75;;
60076;SDS011;45950;45.208;20.374;2023-11-19T09:44:38;45.88;;;19.52;;
60076;SDS011;45950;45.208;20.374;2023-11-19T09:47:05;20.10;;;11.45;;
60076;SDS011;45950;45.208;20.374;2023-11-19T09:49:32;20.60;;;10.73;;
60076;SDS011;45950;45.208;20.374;2023-11-19T09:52:00;9.60;;;7.15;;
60076;SDS011;45950;45.208;20.374;2023-11-19T09:54:28;10.32;;;7.47;;
60076;SDS011;45950;45.208;20.374;2023-11-19T09:56:54;12.85;;;7.75;;
60076;SDS011;45950;45.208;20.374;2023-11-19T09:59:24;10.90;;;7.57;;
60076;SDS011;45950;45.208;20.374;2023-11-19T10:01:51;18.08;;;9.68;;
60076;SDS011;45950;45.208;20.374;2023-11-19T10:04:17;15.40;;;9.07;;
60076;SDS011;45950;45.208;20.374;2023-11-19T10:06:45;14.18;;;9.10;;
60076;SDS011;45950;45.208;20.374;2023-11-19T10:09:14;17.60;;;11.60;;
60076;SDS011;45950;45.208;20.374;2023-11-19T10:11:41;21.58;;;13.10;;
60076;SDS011;45950;45.208;20.374;2023-11-19T10:14:07;25.30;;;13.80;;
60076;SDS011;45950;45.208;20.374;2023-11-19T10:16:34;30.83;;;18.27;;
60076;SDS011;45950;45.208;20.374;2023-11-19T10:19:01;33.17;;;16.95;;
60076;SDS011;45950;45.208;20.374;2023-11-19T10:21:27;15.05;;;8.88;;
60076;SDS011;45950;45.208;20.374;2023-11-19T10:23:57;20.98;;;12.52;;
60076;SDS011;45950;45.208;20.374;2023-11-19T10:26:27;22.88;;;13.32;;
60076;SDS011;45950;45.208;20.374;2023-11-19T10:28:54;17.40;;;10.73;;
60076;SDS011;45950;45.208;20.374;2023-11-19T10:31:21;16.10;;;10.35;;
60076;SDS011;45950;45.208;20.374;2023-11-19T10:33:50;16.05;;;9.25;;
60076;SDS011;45950;45.208;20.374;2023-11-19T10:36:17;19.75;;;12.32;;
60076;SDS011;45950;45.208;20.374;2023-11-19T10:38:51;17.40;;;11.32;;
60076;SDS011;45950;45.208;20.374;2023-11-19T10:41:27;16.30;;;10.52;;
60076;SDS011;45950;45.208;20.374;2023-11-19T10:43:54;13.25;;;8.10;;
60076;SDS011;45950;45.208;20.374;2023-11-19T10:46:22;11.35;;;7.65;;
60076;SDS011;45950;45.208;20.374;2023-11-19T10:48:48;14.63;;;10.18;;
60076;SDS011;45950;45.208;20.374;2023-11-19T10:51:17;14.93;;;9.75;;
60076;SDS011;45950;45.208;20.374;2023-11-19T10:53:46;18.55;;;10.40;;
60076;SDS011;45950;45.208;20.374;2023-11-19T10:56:16;15.18;;;11.10;;
60076;SDS011;45950;45.208;20.374;2023-11-19T10:58:45;12.90;;;8.18;;
60076;SDS011;45950;45.208;20.374;2023-11-19T11:01:13;16.33;;;10.43;;
60076;SDS011;45950;45.208;20.374;2023-11-19T11:03:42;15.23;;;6.80;;
60076;SDS011;45950;45.208;20.374;2023-11-19T11:06:11;14.90;;;8.50;;
60076;SDS011;45950;45.208;20.374;2023-11-19T11:08:39;23.45;;;13.00;;
60076;SDS011;45950;45.208;20.374;2023-11-19T11:11:05;18.77;;;11.32;;
60076;SDS011;45950;45.208;20.374;2023-11-19T11:13:39;21.95;;;11.15;;
60076;SDS011;45950;45.208;20.374;2023-11-19T11:16:11;13.77;;;9.02;;
60076;SDS011;45950;45.208;20.374;2023-11-19T11:18:38;14.80;;;8.80;;
60076;SDS011;45950;45.208;20.374;2023-11-19T11:21:11;16.42;;;9.27;;
60076;SDS011;45950;45.208;20.374;2023-11-19T11:23:46;15.07;;;9.73;;
60076;SDS011;45950;45.208;20.374;2023-11-19T11:26:27;20.52;;;12.63;;
60076;SDS011;45950;45.208;20.374;2023-11-19T11:28:57;22.95;;;13.07;;
60076;SDS011;45950;45.208;20.374;2023-11-19T11:31:29;15.25;;;8.88;;
60076;SDS011;45950;45.208;20.374;2023-11-19T11:34:07;13.30;;;8.25;;
60076;SDS011;45950;45.208;20.374;2023-11-19T11:36:38;16.45;;;9.80;;
60076;SDS011;45950;45.208;20.374;2023-11-19T11:39:10;11.35;;;7.40;;
60076;SDS011;45950;45.208;20.374;2023-11-19T11:41:37;10.10;;;6.70;;
60076;SDS011;45950;45.208;20.374;2023-11-19T11:44:03;11.50;;;6.57;;
60076;SDS011;45950;45.208;20.374;2023-11-19T11:49:16;13.60;;;8.38;;
60076;SDS011;45950;45.208;20.374;2023-11-19T11:51:57;16.67;;;10.00;;
60076;SDS011;45950;45.208;20.374;2023-11-19T11:54:27;11.93;;;8.27;;
60076;SDS011;45950;45.208;20.374;2023-11-19T11:57:07;40.97;;;19.60;;
60076;SDS011;45950;45.208;20.374;2023-11-19T11:59:47;17.13;;;10.77;;
60076;SDS011;45950;45.208;20.374;2023-11-19T12:02:18;13.65;;;8.55;;
60076;SDS011;45950;45.208;20.374;2023-11-19T12:04:51;19.80;;;11.45;;
60076;SDS011;45950;45.208;20.374;2023-11-19T12:07:18;46.78;;;24.00;;
60076;SDS011;45950;45.208;20.374;2023-11-19T12:10:05;19.75;;;10.80;;
60076;SDS011;45950;45.208;20.374;2023-11-19T12:12:33;12.45;;;7.38;;
60076;SDS011;45950;45.208;20.374;2023-11-19T12:15:04;13.98;;;9.07;;
60076;SDS011;45950;45.208;20.374;2023-11-19T12:17:41;17.80;;;10.10;;
60076;SDS011;45950;45.208;20.374;2023-11-19T12:20:11;16.33;;;8.90;;
60076;SDS011;45950;45.208;20.374;2023-11-19T12:22:37;16.77;;;8.57;;
60076;SDS011;45950;45.208;20.374;2023-11-19T12:25:05;9.65;;;6.05;;
60076;SDS011;45950;45.208;20.374;2023-11-19T12:27:32;8.15;;;5.10;;
60076;SDS011;45950;45.208;20.374;2023-11-19T12:30:00;13.40;;;7.40;;
60076;SDS011;45950;45.208;20.374;2023-11-19T12:32:37;13.95;;;7.68;;
60076;SDS011;45950;45.208;20.374;2023-11-19T12:35:03;20.17;;;10.52;;
60076;SDS011;45950;45.208;20.374;2023-11-19T12:37:31;16.75;;;9.18;;
60076;SDS011;45950;45.208;20.374;2023-11-19T12:39:58;10.70;;;7.25;;
60076;SDS011;45950;45.208;20.374;2023-11-19T12:42:34;13.95;;;7.65;;
60076;SDS011;45950;45.208;20.374;2023-11-19T12:45:01;13.00;;;7.43;;
60076;SDS011;45950;45.208;20.374;2023-11-19T12:47:27;12.57;;;7.50;;
60076;SDS011;45950;45.208;20.374;2023-11-19T12:49:57;13.00;;;7.85;;
60076;SDS011;45950;45.208;20.374;2023-11-19T12:52:25;11.35;;;5.97;;
60076;SDS011;45950;45.208;20.374;2023-11-19T12:54:55;9.77;;;5.90;;
60076;SDS011;45950;45.208;20.374;2023-11-19T12:57:35;9.70;;;6.53;;
60076;SDS011;45950;45.208;20.374;2023-11-19T13:00:05;9.80;;;6.18;;
60076;SDS011;45950;45.208;20.374;2023-11-19T13:05:22;25.88;;;16.63;;
60076;SDS011;45950;45.208;20.374;2023-11-19T13:07:49;16.10;;;10.00;;
60076;SDS011;45950;45.208;20.374;2023-11-19T13:10:17;13.07;;;8.07;;
60076;SDS011;45950;45.208;20.374;2023-11-19T13:12:43;12.00;;;7.80;;
60076;SDS011;45950;45.208;20.374;2023-11-19T13:15:22;15.75;;;8.50;;
60076;SDS011;45950;45.208;20.374;2023-11-19T13:17:51;15.73;;;9.65;;
60076;SDS011;45950;45.208;20.374;2023-11-19T13:20:23;16.77;;;9.18;;
60076;SDS011;45950;45.208;20.374;2023-11-19T13:22:56;13.90;;;8.50;;
60076;SDS011;45950;45.208;20.374;2023-11-19T13:25:24;15.30;;;8.63;;
60076;SDS011;45950;45.208;20.374;2023-11-19T13:27:51;17.92;;;9.40;;
60076;SDS011;45950;45.208;20.374;2023-11-19T13:30:28;15.85;;;9.10;;
60076;SDS011;45950;45.208;20.374;2023-11-19T13:32:55;16.92;;;10.27;;
60076;SDS011;45950;45.208;20.374;2023-11-19T13:35:22;15.23;;;10.13;;
60076;SDS011;45950;45.208;20.374;2023-11-19T13:37:48;16.10;;;10.23;;
60076;SDS011;45950;45.208;20.374;2023-11-19T13:40:15;18.90;;;11.25;;
60076;SDS011;45950;45.208;20.374;2023-11-19T13:42:43;19.40;;;11.93;;
60076;SDS011;45950;45.208;20.374;2023-11-19T13:45:10;16.25;;;9.38;;
60076;SDS011;45950;45.208;20.374;2023-11-19T13:47:40;14.38;;;8.82;;
60076;SDS011;45950;45.208;20.374;2023-11-19T13:50:08;12.65;;;7.93;;
60076;SDS011;45950;45.208;20.374;2023-11-19T13:52:35;12.75;;;8.18;;
60076;SDS011;45950;45.208;20.374;2023-11-19T13:55:04;12.82;;;8.18;;
60076;SDS011;45950;45.208;20.374;2023-11-19T13:57:31;15.93;;;9.02;;
60076;SDS011;45950;45.208;20.374;2023-11-19T14:00:00;14.52;;;8.52;;
60076;SDS011;45950;45.208;20.374;2023-11-19T14:02:30;17.42;;;10.50;;
60076;SDS011;45950;45.208;20.374;2023-11-19T14:04:56;21.38;;;12.57;;
60076;SDS011;45950;45.208;20.374;2023-11-19T14:07:23;19.95;;;11.52;;
60076;SDS011;45950;45.208;20.374;2023-11-19T14:09:49;17.95;;;11.32;;
60076;SDS011;45950;45.208;20.374;2023-11-19T14:12:17;18.95;;;11.50;;
60076;SDS011;45950;45.208;20.374;2023-11-19T14:14:44;14.82;;;9.43;;
60076;SDS011;45950;45.208;20.374;2023-11-19T14:17:12;18.38;;;10.35;;
60076;SDS011;45950;45.208;20.374;2023-11-19T14:19:49;15.30;;;10.07;;
60076;SDS011;45950;45.208;20.374;2023-11-19T14:22:16;18.45;;;10.57;;
60076;SDS011;45950;45.208;20.374;2023-11-19T14:24:51;22.83;;;12.55;;
60076;SDS011;45950;45.208;20.374;2023-11-19T14:27:19;26.27;;;14.10;;
60076;SDS011;45950;45.208;20.374;2023-11-19T14:29:47;35.78;;;17.10;;
60076;SDS011;45950;45.208;20.374;2023-11-19T14:32:15;34.33;;;16.88;;
60076;SDS011;45950;45.208;20.374;2023-11-19T14:34:41;43.75;;;19.70;;
60076;SDS011;45950;45.208;20.374;2023-11-19T14:37:09;32.40;;;16.08;;